Time;durP1;ratioP1;P1;durP2;ratioP2;P2;SDS_P1;SDS_P2;PMS_P1;PMS_P2;Temp;Humidity;BMP_temperature;BMP_pressure;BME280_temperature;BME280_humidity;BME280_pressure;Samples;Min_cycle;Max_cycle;Signal;HPM_P1;HPM_P2
2022/03/15 00:00:34;;;;;;;2.10;1.10;;;;;;;;;;5095002;28;20376;-51
2022/03/15 00:03:01;;;;;;;2.72;1.00;;;;;;;;;;5092435;28;20059;-52
2022/03/15 00:05:27;;;;;;;2.05;1.20;;;;;;;;;;5094567;28;20064;-53
2022/03/15 00:07:53;;;;;;;2.20;1.00;;;;;;;;;;5094249;28;20429;-51
2022/03/15 00:10:19;;;;;;;1.85;1.30;;;;;;;;;;5094604;28;20095;-49
2022/03/15 00:12:46;;;;;;;1.65;1.10;;;;;;;;;;5094642;28;20027;-55
2022/03/15 00:15:12;;;;;;;1.50;0.80;;;;;;;;;;5093946;28;20028;-47
2022/03/15 00:17:39;;;;;;;3.05;1.42;;;;;;;;;;5094851;28;20035;-51
2022/03/15 00:20:06;;;;;;;2.60;1.13;;;;;;;;;;5091368;28;20032;-47
2022/03/15 00:22:34;;;;;;;2.60;1.10;;;;;;;;;;5074497;28;20024;-47
2022/03/15 00:25:02;;;;;;;1.77;1.10;;;;;;;;;;5073554;28;20492;-51
2022/03/15 00:27:28;;;;;;;1.75;0.90;;;;;;;;;;5074176;28;20070;-54
2022/03/15 00:29:54;;;;;;;1.88;1.27;;;;;;;;;;5073561;28;20028;-47
2022/03/15 00:32:20;;;;;;;2.72;1.42;;;;;;;;;;5092605;28;20032;-49
2022/03/15 00:34:49;;;;;;;1.85;1.25;;;;;;;;;;5090273;28;20599;-55
2022/03/15 00:37:15;;;;;;;1.05;0.77;;;;;;;;;;5074247;28;20082;-47
2022/03/15 00:39:42;;;;;;;2.13;1.30;;;;;;;;;;5075291;28;20026;-47
2022/03/15 00:42:08;;;;;;;2.05;0.80;;;;;;;;;;5073380;28;20024;-49
2022/03/15 00:44:34;;;;;;;1.98;1.10;;;;;;;;;;5084427;28;20457;-50
2022/03/15 00:47:01;;;;;;;3.30;1.45;;;;;;;;;;5093552;28;20031;-49
2022/03/15 00:49:27;;;;;;;4.18;1.45;;;;;;;;;;5093781;28;20124;-51
2022/03/15 00:51:54;;;;;;;2.90;0.98;;;;;;;;;;5075554;28;20024;-50
2022/03/15 00:54:21;;;;;;;2.20;1.02;;;;;;;;;;5094105;28;20024;-48
2022/03/15 00:56:47;;;;;;;2.05;1.10;;;;;;;;;;5061026;28;20355;-56
2022/03/15 00:59:13;;;;;;;1.45;0.82;;;;;;;;;;5076332;28;20036;-47
2022/03/15 01:01:39;;;;;;;3.42;1.30;;;;;;;;;;5094588;28;20024;-49
2022/03/15 01:04:05;;;;;;;1.63;1.00;;;;;;;;;;5093838;28;20032;-51
2022/03/15 01:06:31;;;;;;;3.00;1.10;;;;;;;;;;5093983;28;20024;-47
2022/03/15 01:08:57;;;;;;;2.05;1.20;;;;;;;;;;5092193;28;20028;-47
2022/03/15 01:11:23;;;;;;;2.75;0.93;;;;;;;;;;5073362;28;20020;-48
2022/03/15 01:13:51;;;;;;;1.88;1.13;;;;;;;;;;5072591;28;20059;-54
2022/03/15 01:16:16;;;;;;;1.50;1.13;;;;;;;;;;5073230;28;20481;-48
2022/03/15 01:18:43;;;;;;;2.60;0.98;;;;;;;;;;5073594;28;20028;-50
2022/03/15 01:21:09;;;;;;;2.78;1.15;;;;;;;;;;5091217;28;20016;-51
2022/03/15 01:23:35;;;;;;;1.10;1.00;;;;;;;;;;5073516;28;20020;-48
2022/03/15 01:26:01;;;;;;;2.25;1.40;;;;;;;;;;5054625;28;20359;-52
2022/03/15 01:28:29;;;;;;;2.15;0.95;;;;;;;;;;5073864;28;20028;-49
2022/03/15 01:30:55;;;;;;;2.25;1.20;;;;;;;;;;5092730;28;20024;-49
2022/03/15 01:33:22;;;;;;;1.92;0.98;;;;;;;;;;5093381;28;20031;-48
2022/03/15 01:35:48;;;;;;;2.40;0.85;;;;;;;;;;5093103;28;20017;-56
2022/03/15 01:38:14;;;;;;;1.48;1.00;;;;;;;;;;5092587;28;20035;-48
2022/03/15 01:40:40;;;;;;;1.80;1.25;;;;;;;;;;5074304;28;20099;-47
2022/03/15 01:43:06;;;;;;;2.13;1.02;;;;;;;;;;5071912;28;20027;-50
2022/03/15 01:45:37;;;;;;;1.75;1.20;;;;;;;;;;5090943;28;20033;-51
2022/03/15 01:48:03;;;;;;;1.67;0.90;;;;;;;;;;5091187;28;20035;-49
2022/03/15 01:50:29;;;;;;;2.95;1.13;;;;;;;;;;5072823;28;20032;-51
2022/03/15 01:52:55;;;;;;;1.73;0.90;;;;;;;;;;5071923;28;20394;-49
2022/03/15 01:55:22;;;;;;;2.90;1.05;;;;;;;;;;5072416;28;20032;-47
2022/03/15 01:57:49;;;;;;;1.35;0.90;;;;;;;;;;5072775;28;20406;-48
2022/03/15 02:00:16;;;;;;;1.25;1.00;;;;;;;;;;5091863;28;20031;-47
2022/03/15 02:02:43;;;;;;;1.88;0.93;;;;;;;;;;5093637;28;20353;-48
2022/03/15 02:05:09;;;;;;;2.50;1.30;;;;;;;;;;5074148;28;20032;-47
2022/03/15 02:07:35;;;;;;;1.85;0.90;;;;;;;;;;5092541;28;20042;-47
2022/03/15 02:10:01;;;;;;;3.50;1.75;;;;;;;;;;5073881;28;20386;-49
2022/03/15 02:12:27;;;;;;;3.65;1.48;;;;;;;;;;5073441;28;20118;-49
2022/03/15 02:14:53;;;;;;;1.25;0.80;;;;;;;;;;5071663;28;20036;-50
2022/03/15 02:17:19;;;;;;;2.50;0.90;;;;;;;;;;5072060;28;20075;-47
2022/03/15 02:19:45;;;;;;;1.73;1.20;;;;;;;;;;5091742;28;20048;-47
2022/03/15 02:22:11;;;;;;;2.85;1.10;;;;;;;;;;5091831;28;20027;-48
2022/03/15 02:24:39;;;;;;;1.70;0.85;;;;;;;;;;5092188;28;20020;-49
2022/03/15 02:27:05;;;;;;;1.67;1.02;;;;;;;;;;5091709;28;20036;-47
2022/03/15 02:29:31;;;;;;;2.33;1.10;;;;;;;;;;5073680;28;20024;-51
2022/03/15 02:31:57;;;;;;;2.95;1.20;;;;;;;;;;5071199;28;20025;-49
2022/03/15 02:34:23;;;;;;;1.90;1.13;;;;;;;;;;5071875;28;20082;-48
2022/03/15 02:36:49;;;;;;;1.77;1.05;;;;;;;;;;5071794;28;20082;-47
2022/03/15 02:39:15;;;;;;;1.70;1.00;;;;;;;;;;5091188;28;20090;-51
2022/03/15 02:41:41;;;;;;;1.88;1.30;;;;;;;;;;5092339;28;20028;-47
2022/03/15 02:44:07;;;;;;;2.15;1.20;;;;;;;;;;5084562;28;20025;-51
2022/03/15 02:46:34;;;;;;;2.28;1.00;;;;;;;;;;5071981;28;20033;-47
2022/03/15 02:49:00;;;;;;;2.00;1.00;;;;;;;;;;5088655;28;20021;-51
2022/03/15 02:51:27;;;;;;;1.88;1.00;;;;;;;;;;5092064;28;20028;-48
2022/03/15 02:53:56;;;;;;;1.27;0.75;;;;;;;;;;5091580;28;20477;-55
2022/03/15 02:56:22;;;;;;;2.58;1.00;;;;;;;;;;5073343;28;20028;-48
2022/03/15 02:58:48;;;;;;;2.00;0.88;;;;;;;;;;5091915;28;20047;-52
2022/03/15 03:01:14;;;;;;;1.63;0.85;;;;;;;;;;5090963;28;20515;-48
2022/03/15 03:03:41;;;;;;;1.15;0.85;;;;;;;;;;5091020;28;20423;-49
2022/03/15 03:06:07;;;;;;;1.30;0.90;;;;;;;;;;5073358;28;20031;-51
2022/03/15 03:08:34;;;;;;;1.40;0.80;;;;;;;;;;5073386;28;20033;-47
2022/03/15 03:11:00;;;;;;;3.05;1.08;;;;;;;;;;5071000;28;20078;-47
2022/03/15 03:13:27;;;;;;;1.50;0.95;;;;;;;;;;5071619;28;20071;-48
2022/03/15 03:16:00;;;;;;;1.88;1.02;;;;;;;;;;5071049;28;20127;-56
2022/03/15 03:18:32;;;;;;;2.08;1.05;;;;;;;;;;5088113;28;20034;-47
2022/03/15 03:20:59;;;;;;;2.83;1.17;;;;;;;;;;5090728;28;20502;-47
2022/03/15 03:23:25;;;;;;;3.33;0.98;;;;;;;;;;5092067;28;20032;-48
2022/03/15 03:25:51;;;;;;;2.03;1.00;;;;;;;;;;5091273;28;20018;-51
2022/03/15 03:28:17;;;;;;;1.75;0.93;;;;;;;;;;5071057;28;20736;-48
2022/03/15 03:30:46;;;;;;;1.45;1.10;;;;;;;;;;5053684;28;20021;-48
2022/03/15 03:33:13;;;;;;;1.27;0.82;;;;;;;;;;5070465;28;20577;-48
2022/03/15 03:35:39;;;;;;;3.22;1.38;;;;;;;;;;5071385;28;20068;-52
2022/03/15 03:38:06;;;;;;;2.25;0.90;;;;;;;;;;5088418;28;20111;-48
2022/03/15 03:40:32;;;;;;;1.70;1.33;;;;;;;;;;5091643;28;20054;-47
2022/03/15 03:42:58;;;;;;;1.90;1.05;;;;;;;;;;5090938;28;20480;-51
2022/03/15 03:45:24;;;;;;;1.67;1.13;;;;;;;;;;5074090;28;20033;-49
2022/03/15 03:47:51;;;;;;;2.35;1.10;;;;;;;;;;5086999;28;20088;-49
2022/03/15 03:50:18;;;;;;;1.55;0.85;;;;;;;;;;5090995;28;20024;-50
2022/03/15 03:52:44;;;;;;;1.08;0.80;;;;;;;;;;5072161;28;20036;-50
2022/03/15 03:55:10;;;;;;;2.22;0.80;;;;;;;;;;5070439;28;20037;-50
2022/03/15 03:57:36;;;;;;;1.08;0.85;;;;;;;;;;5089256;28;20149;-50
2022/03/15 04:00:04;;;;;;;1.77;1.20;;;;;;;;;;5090394;28;20035;-51
2022/03/15 04:02:30;;;;;;;1.45;0.90;;;;;;;;;;5091221;28;20546;-52
2022/03/15 04:04:56;;;;;;;2.15;1.20;;;;;;;;;;5090856;28;20040;-54
2022/03/15 04:07:22;;;;;;;2.08;1.10;;;;;;;;;;5076623;28;20028;-47
2022/03/15 04:09:48;;;;;;;2.00;0.75;;;;;;;;;;5075472;28;20028;-47
2022/03/15 04:12:15;;;;;;;1.73;1.20;;;;;;;;;;5073637;28;20107;-50
2022/03/15 04:14:41;;;;;;;1.77;1.00;;;;;;;;;;5074414;28;20044;-47
2022/03/15 04:17:07;;;;;;;1.55;1.05;;;;;;;;;;5091604;28;20052;-46
2022/03/15 04:19:33;;;;;;;4.13;1.73;;;;;;;;;;5094772;28;20016;-47
2022/03/15 04:21:59;;;;;;;2.03;1.25;;;;;;;;;;5093954;28;20077;-50
2022/03/15 04:24:26;;;;;;;2.28;1.20;;;;;;;;;;5095068;28;20032;-47
2022/03/15 04:26:52;;;;;;;1.58;1.10;;;;;;;;;;5078572;28;20434;-47
2022/03/15 04:29:18;;;;;;;4.72;1.02;;;;;;;;;;5073720;28;20123;-50
2022/03/15 04:31:44;;;;;;;2.33;1.00;;;;;;;;;;5074288;28;20024;-46
2022/03/15 04:34:10;;;;;;;1.70;1.00;;;;;;;;;;5073574;28;20033;-50
2022/03/15 04:36:36;;;;;;;1.42;0.90;;;;;;;;;;5087276;28;20373;-51
2022/03/15 04:39:03;;;;;;;1.58;1.23;;;;;;;;;;5093659;28;20035;-47
2022/03/15 04:41:29;;;;;;;4.90;0.80;;;;;;;;;;5077674;28;20048;-49
2022/03/15 04:43:56;;;;;;;1.55;1.00;;;;;;;;;;5078854;28;20024;-54
2022/03/15 04:46:23;;;;;;;2.85;0.90;;;;;;;;;;5075481;28;20107;-47
2022/03/15 04:48:49;;;;;;;1.33;0.75;;;;;;;;;;5094502;28;20070;-49
2022/03/15 04:51:15;;;;;;;2.28;1.15;;;;;;;;;;5093322;28;20286;-48
2022/03/15 04:53:41;;;;;;;1.73;1.40;;;;;;;;;;5094160;28;20056;-47
2022/03/15 04:56:07;;;;;;;2.05;1.10;;;;;;;;;;5079916;28;20059;-50
2022/03/15 04:58:33;;;;;;;1.73;1.00;;;;;;;;;;5074138;28;20025;-47
2022/03/15 05:00:59;;;;;;;1.75;0.98;;;;;;;;;;5073101;28;20086;-50
2022/03/15 05:03:25;;;;;;;1.45;0.90;;;;;;;;;;5074068;28;20491;-51
2022/03/15 05:05:52;;;;;;;2.35;1.00;;;;;;;;;;5088602;28;20036;-47
2022/03/15 05:08:18;;;;;;;1.92;1.05;;;;;;;;;;5093035;28;20103;-48
2022/03/15 05:13:28;;;;;;;1.45;1.00;;;;;;;;;;5093717;28;20069;-47
2022/03/15 05:15:55;;;;;;;2.45;1.23;;;;;;;;;;5093181;28;20436;-49
2022/03/15 05:18:21;;;;;;;2.10;1.20;;;;;;;;;;5092792;28;20024;-47
2022/03/15 05:20:47;;;;;;;1.42;0.90;;;;;;;;;;5093347;28;20553;-49
2022/03/15 05:23:13;;;;;;;1.88;1.02;;;;;;;;;;5085916;28;20052;-49
2022/03/15 05:25:39;;;;;;;2.08;1.00;;;;;;;;;;5085705;28;20473;-48
2022/03/15 05:28:11;;;;;;;2.05;0.90;;;;;;;;;;5092715;28;20031;-48
2022/03/15 05:30:38;;;;;;;1.75;1.20;;;;;;;;;;5076303;28;20028;-50
2022/03/15 05:33:04;;;;;;;2.38;0.90;;;;;;;;;;5054476;28;20363;-49
2022/03/15 05:35:30;;;;;;;3.42;1.30;;;;;;;;;;5088687;28;20384;-50
2022/03/15 05:37:56;;;;;;;2.08;1.17;;;;;;;;;;5093307;28;20031;-48
2022/03/15 05:40:22;;;;;;;1.73;1.10;;;;;;;;;;5092739;28;20028;-50
2022/03/15 05:42:48;;;;;;;2.25;1.27;;;;;;;;;;5093148;28;20095;-52
2022/03/15 05:45:14;;;;;;;4.30;1.60;;;;;;;;;;5078038;28;20111;-51
2022/03/15 05:47:40;;;;;;;2.42;0.80;;;;;;;;;;5083235;28;20569;-48
2022/03/15 05:50:07;;;;;;;1.27;1.02;;;;;;;;;;5077108;28;20066;-47
2022/03/15 05:52:33;;;;;;;1.75;0.85;;;;;;;;;;5093786;28;20021;-47
2022/03/15 05:54:59;;;;;;;1.48;0.77;;;;;;;;;;5079999;28;20042;-55
2022/03/15 05:57:25;;;;;;;1.65;1.00;;;;;;;;;;5081667;28;20028;-50
2022/03/15 05:59:51;;;;;;;2.53;1.23;;;;;;;;;;5079652;28;20102;-47
2022/03/15 06:02:17;;;;;;;2.38;1.13;;;;;;;;;;5080519;28;20021;-48
2022/03/15 06:04:43;;;;;;;3.03;1.52;;;;;;;;;;5082996;28;20546;-47
2022/03/15 06:07:09;;;;;;;2.42;0.95;;;;;;;;;;5071167;28;20020;-47
2022/03/15 06:09:35;;;;;;;2.17;1.23;;;;;;;;;;5072132;28;20351;-47
2022/03/15 06:12:02;;;;;;;2.47;0.88;;;;;;;;;;5075676;28;20020;-55
2022/03/15 06:14:28;;;;;;;2.58;0.90;;;;;;;;;;5092481;28;20032;-47
2022/03/15 06:16:54;;;;;;;3.08;1.38;;;;;;;;;;5092496;28;20726;-47
2022/03/15 06:19:20;;;;;;;3.28;1.10;;;;;;;;;;5084638;28;20024;-50
2022/03/15 06:21:46;;;;;;;1.65;0.82;;;;;;;;;;5073679;28;20024;-49
2022/03/15 06:24:12;;;;;;;4.55;1.02;;;;;;;;;;5091288;28;20024;-51
2022/03/15 06:26:39;;;;;;;2.58;1.13;;;;;;;;;;5092555;28;20069;-51
2022/03/15 06:29:05;;;;;;;3.10;1.42;;;;;;;;;;5086933;28;20052;-48
2022/03/15 06:31:32;;;;;;;2.97;0.77;;;;;;;;;;5071487;28;20485;-47
2022/03/15 06:33:58;;;;;;;1.23;1.00;;;;;;;;;;5072058;28;20101;-50
2022/03/15 06:36:24;;;;;;;2.75;1.00;;;;;;;;;;5073720;28;20070;-59
2022/03/15 06:38:50;;;;;;;5.35;1.45;;;;;;;;;;5090502;28;20081;-48
2022/03/15 06:41:17;;;;;;;7.13;1.42;;;;;;;;;;5071192;28;20366;-50
2022/03/15 06:43:43;;;;;;;4.75;1.30;;;;;;;;;;5075206;28;20016;-49
2022/03/15 06:46:09;;;;;;;5.63;1.52;;;;;;;;;;5090774;28;20047;-47
2022/03/15 06:48:36;;;;;;;9.93;1.30;;;;;;;;;;5091996;28;20028;-50
2022/03/15 06:51:02;;;;;;;5.90;1.90;;;;;;;;;;5071246;28;20440;-55
2022/03/15 06:53:29;;;;;;;7.43;2.42;;;;;;;;;;5072137;28;20024;-49
2022/03/15 06:55:55;;;;;;;6.20;2.05;;;;;;;;;;5071941;28;20116;-49
2022/03/15 06:58:21;;;;;;;6.43;2.05;;;;;;;;;;5071471;28;20575;-49
2022/03/15 07:00:47;;;;;;;8.65;2.50;;;;;;;;;;5074922;28;20068;-54
2022/03/15 07:03:13;;;;;;;5.55;1.77;;;;;;;;;;5071928;28;20016;-49
2022/03/15 07:05:40;;;;;;;5.72;1.92;;;;;;;;;;5072236;28;20490;-49
2022/03/15 07:08:06;;;;;;;4.65;1.85;;;;;;;;;;5090593;28;20063;-54
2022/03/15 07:10:33;;;;;;;5.07;1.50;;;;;;;;;;5072153;28;20025;-51
2022/03/15 07:12:59;;;;;;;7.45;2.10;;;;;;;;;;5053825;28;20048;-53
2022/03/15 07:15:25;;;;;;;4.18;1.48;;;;;;;;;;5071056;28;20036;-50
2022/03/15 07:17:52;;;;;;;7.32;2.78;;;;;;;;;;5071750;28;20116;-50
2022/03/15 07:20:19;;;;;;;4.05;1.73;;;;;;;;;;5076636;28;20100;-53
2022/03/15 07:22:45;;;;;;;4.38;1.30;;;;;;;;;;5078338;28;20029;-52
2022/03/15 07:25:11;;;;;;;3.33;1.40;;;;;;;;;;5072076;28;20031;-53
2022/03/15 07:27:37;;;;;;;5.80;1.95;;;;;;;;;;5071873;28;20012;-54
2022/03/15 07:30:03;;;;;;;3.30;1.65;;;;;;;;;;5071954;28;20381;-57
2022/03/15 07:32:29;;;;;;;6.10;2.15;;;;;;;;;;5082168;28;20469;-52
2022/03/15 07:34:55;;;;;;;3.05;1.30;;;;;;;;;;5091558;28;20078;-52
2022/03/15 07:37:21;;;;;;;5.03;1.48;;;;;;;;;;5090878;28;20031;-51
2022/03/15 07:39:47;;;;;;;2.90;1.45;;;;;;;;;;5091382;28;20024;-53
2022/03/15 07:42:14;;;;;;;3.13;1.60;;;;;;;;;;5083163;28;20020;-52
2022/03/15 07:44:42;;;;;;;3.53;1.40;;;;;;;;;;5082905;28;20031;-53
2022/03/15 07:47:10;;;;;;;4.60;1.25;;;;;;;;;;5086827;28;20028;-53
2022/03/15 07:49:36;;;;;;;6.93;2.55;;;;;;;;;;5082052;28;20031;-53
2022/03/15 07:52:02;;;;;;;6.20;2.13;;;;;;;;;;5095970;28;20024;-59
2022/03/15 07:54:28;;;;;;;3.17;1.65;;;;;;;;;;5094772;28;20461;-49
2022/03/15 07:56:54;;;;;;;4.93;1.75;;;;;;;;;;5078877;28;20036;-53
2022/03/15 07:59:20;;;;;;;5.20;1.75;;;;;;;;;;5078712;28;20538;-52
2022/03/15 08:01:46;;;;;;;2.28;1.40;;;;;;;;;;5095396;28;20028;-53
2022/03/15 08:04:13;;;;;;;3.03;1.35;;;;;;;;;;5083476;28;20112;-52
2022/03/15 08:06:39;;;;;;;3.30;1.60;;;;;;;;;;5074622;28;20108;-52
2022/03/15 08:09:06;;;;;;;4.40;1.80;;;;;;;;;;5078068;28;20025;-58
2022/03/15 08:11:32;;;;;;;3.17;1.58;;;;;;;;;;5083073;28;20484;-52
2022/03/15 08:13:59;;;;;;;3.80;1.20;;;;;;;;;;5077765;28;20393;-51
2022/03/15 08:16:25;;;;;;;4.40;1.88;;;;;;;;;;5088832;28;20052;-53
2022/03/15 08:18:53;;;;;;;3.75;1.73;;;;;;;;;;5084074;28;20020;-54
2022/03/15 08:21:19;;;;;;;3.95;1.42;;;;;;;;;;5090810;28;20032;-54
2022/03/15 08:23:46;;;;;;;4.55;2.05;;;;;;;;;;5094123;28;20073;-52
2022/03/15 08:26:12;;;;;;;3.58;1.88;;;;;;;;;;5093825;28;20034;-49
2022/03/15 08:28:38;;;;;;;3.75;1.40;;;;;;;;;;5091596;28;20111;-50
2022/03/15 08:31:04;;;;;;;3.30;1.35;;;;;;;;;;5073652;28;20551;-59
2022/03/15 08:33:30;;;;;;;2.70;1.60;;;;;;;;;;5085910;28;20032;-51
2022/03/15 08:35:56;;;;;;;3.13;1.73;;;;;;;;;;5069536;28;20073;-51
2022/03/15 08:38:22;;;;;;;4.93;1.88;;;;;;;;;;5080507;28;20028;-50
2022/03/15 08:40:49;;;;;;;3.05;1.40;;;;;;;;;;5073417;28;20458;-54
2022/03/15 08:43:15;;;;;;;2.65;1.20;;;;;;;;;;5074573;28;20033;-51
2022/03/15 08:45:41;;;;;;;3.42;1.60;;;;;;;;;;5082531;28;20047;-54
2022/03/15 08:48:07;;;;;;;3.78;1.30;;;;;;;;;;5079990;28;20024;-60
2022/03/15 08:50:34;;;;;;;3.05;1.02;;;;;;;;;;5088434;28;20043;-51
2022/03/15 08:53:00;;;;;;;4.03;1.58;;;;;;;;;;5081030;28;20494;-50
2022/03/15 08:55:27;;;;;;;2.45;1.55;;;;;;;;;;5072412;28;20036;-53
2022/03/15 08:57:53;;;;;;;3.45;1.20;;;;;;;;;;5073870;28;20453;-52
2022/03/15 09:00:19;;;;;;;4.55;1.60;;;;;;;;;;5072907;28;20060;-50
2022/03/15 09:02:47;;;;;;;4.00;1.17;;;;;;;;;;5085304;28;20020;-54
2022/03/15 09:05:16;;;;;;;2.58;1.15;;;;;;;;;;5056993;28;20032;-53
2022/03/15 09:07:43;;;;;;;3.90;1.50;;;;;;;;;;5092258;28;20028;-52
2022/03/15 09:10:09;;;;;;;3.28;1.20;;;;;;;;;;5093158;28;20016;-57
2022/03/15 09:12:35;;;;;;;2.45;1.63;;;;;;;;;;5085927;28;20032;-52
2022/03/15 09:15:01;;;;;;;2.88;1.20;;;;;;;;;;5072806;28;20040;-50
2022/03/15 09:17:27;;;;;;;1.05;0.90;;;;;;;;;;5072461;28;20709;-52
2022/03/15 09:19:53;;;;;;;3.17;1.23;;;;;;;;;;5083270;28;20091;-53
2022/03/15 09:22:19;;;;;;;3.00;1.45;;;;;;;;;;5084680;28;20028;-53
2022/03/15 09:24:45;;;;;;;1.88;1.20;;;;;;;;;;5073292;28;20158;-55
2022/03/15 09:27:12;;;;;;;2.35;1.45;;;;;;;;;;5072276;28;20021;-58
2022/03/15 09:29:38;;;;;;;2.15;1.40;;;;;;;;;;5074182;28;20029;-50
2022/03/15 09:32:05;;;;;;;2.90;1.48;;;;;;;;;;5072877;28;20028;-54
2022/03/15 09:34:31;;;;;;;1.70;1.10;;;;;;;;;;5072257;28;20154;-51
2022/03/15 09:37:00;;;;;;;3.85;1.90;;;;;;;;;;5088311;28;20077;-50
2022/03/15 09:39:26;;;;;;;3.15;1.15;;;;;;;;;;5076424;28;20401;-53
2022/03/15 09:41:54;;;;;;;2.75;1.10;;;;;;;;;;5072781;28;20024;-54
2022/03/15 09:44:20;;;;;;;3.35;0.98;;;;;;;;;;5072012;28;20466;-52
2022/03/15 09:46:51;;;;;;;3.22;1.33;;;;;;;;;;5077192;28;20504;-52
2022/03/15 09:49:18;;;;;;;3.47;1.13;;;;;;;;;;5077082;28;20020;-51
2022/03/15 09:51:45;;;;;;;1.33;0.95;;;;;;;;;;5092101;28;20115;-53
2022/03/15 09:54:13;;;;;;;3.90;1.33;;;;;;;;;;5059126;28;20545;-58
2022/03/15 09:56:39;;;;;;;2.35;0.98;;;;;;;;;;5085964;28;20021;-52
2022/03/15 09:59:14;;;;;;;2.53;1.15;;;;;;;;;;5072421;28;20054;-54
2022/03/15 10:01:40;;;;;;;3.00;1.15;;;;;;;;;;5072596;28;20469;-50
2022/03/15 10:04:07;;;;;;;2.33;1.50;;;;;;;;;;5072527;28;20028;-49
2022/03/15 10:06:33;;;;;;;2.67;1.10;;;;;;;;;;5075683;28;20020;-50
2022/03/15 10:08:59;;;;;;;2.25;0.98;;;;;;;;;;5092649;28;20035;-49
2022/03/15 10:11:25;;;;;;;3.80;1.25;;;;;;;;;;5091722;28;20068;-49
2022/03/15 10:13:51;;;;;;;3.15;1.25;;;;;;;;;;5092382;28;20031;-53
2022/03/15 10:16:17;;;;;;;1.52;0.90;;;;;;;;;;5089483;28;20052;-53
2022/03/15 10:18:56;;;;;;;2.10;1.13;;;;;;;;;;5054665;28;20036;-58
2022/03/15 10:21:25;;;;;;;1.83;1.10;;;;;;;;;;5088665;28;20487;-52
2022/03/15 10:23:55;;;;;;;2.80;1.30;;;;;;;;;;5072208;28;20027;-50
2022/03/15 10:26:23;;;;;;;3.97;1.20;;;;;;;;;;5071040;28;20025;-53
2022/03/15 10:28:49;;;;;;;1.83;1.10;;;;;;;;;;5071381;28;20546;-53
2022/03/15 10:31:16;;;;;;;2.03;1.20;;;;;;;;;;5080212;28;20104;-54
2022/03/15 10:33:43;;;;;;;1.85;1.27;;;;;;;;;;5071928;28;20033;-50
2022/03/15 10:36:18;;;;;;;1.10;0.77;;;;;;;;;;5072022;28;20009;-51
2022/03/15 10:38:45;;;;;;;2.20;1.20;;;;;;;;;;5071882;28;20112;-50
2022/03/15 10:41:14;;;;;;;2.13;1.23;;;;;;;;;;5078921;28;20012;-59
2022/03/15 10:43:41;;;;;;;1.73;1.05;;;;;;;;;;5074458;28;20031;-51
2022/03/15 10:46:09;;;;;;;1.90;1.25;;;;;;;;;;5092145;28;20078;-52
2022/03/15 10:48:36;;;;;;;2.35;1.17;;;;;;;;;;5090832;28;20032;-54
2022/03/15 10:51:09;;;;;;;1.70;1.13;;;;;;;;;;5091375;28;20059;-53
2022/03/15 10:53:42;;;;;;;2.55;0.90;;;;;;;;;;5090891;28;20086;-52
2022/03/15 10:56:11;;;;;;;1.00;0.85;;;;;;;;;;5072927;28;20388;-54
2022/03/15 10:58:44;;;;;;;1.00;0.60;;;;;;;;;;5085286;28;20028;-51
2022/03/15 11:01:10;;;;;;;2.35;1.23;;;;;;;;;;5071658;28;20059;-49
2022/03/15 11:03:36;;;;;;;1.50;0.88;;;;;;;;;;5076940;28;20032;-48
2022/03/15 11:06:08;;;;;;;4.10;1.20;;;;;;;;;;5076954;28;20096;-54
2022/03/15 11:08:34;;;;;;;;;;;;;;;;;;5091393;28;20034;-52
2022/03/15 11:11:06;;;;;;;1.92;1.10;;;;;;;;;;5091773;28;19998;-51
2022/03/15 11:13:32;;;;;;;2.85;1.70;;;;;;;;;;5089710;28;20020;-52
2022/03/15 11:15:59;;;;;;;1.10;0.85;;;;;;;;;;5071217;28;20088;-56
2022/03/15 11:18:28;;;;;;;3.40;1.15;;;;;;;;;;5075022;28;20029;-50
2022/03/15 11:20:54;;;;;;;2.40;1.52;;;;;;;;;;5057497;28;20526;-49
2022/03/15 11:23:22;;;;;;;2.40;1.10;;;;;;;;;;5074746;28;20024;-51
2022/03/15 11:26:04;;;;;;;4.53;1.75;;;;;;;;;;5075598;28;20036;-50
2022/03/15 11:28:31;;;;;;;2.05;1.25;;;;;;;;;;5074879;28;20036;-48
2022/03/15 11:30:58;;;;;;;3.50;2.08;;;;;;;;;;5075567;28;20028;-47
2022/03/15 11:33:25;;;;;;;2.90;1.52;;;;;;;;;;5074590;28;20029;-54
2022/03/15 11:35:51;;;;;;;2.30;1.20;;;;;;;;;;5074971;28;20028;-60
2022/03/15 11:38:18;;;;;;;1.40;0.95;;;;;;;;;;5093993;28;20046;-60
2022/03/15 11:40:45;;;;;;;3.95;1.30;;;;;;;;;;5095480;28;20024;-60
2022/03/15 11:43:33;;;;;;;2.35;1.10;;;;;;;;;;5094973;28;20029;-60
2022/03/15 11:46:17;;;;;;;2.40;1.00;;;;;;;;;;5075379;28;20020;-60
2022/03/15 11:48:51;;;;;;;1.42;1.05;;;;;;;;;;5074638;28;20029;-60
2022/03/15 11:51:23;;;;;;;2.90;1.40;;;;;;;;;;5073984;28;20086;-61
2022/03/15 11:54:10;;;;;;;4.57;0.88;;;;;;;;;;5075448;28;20366;-60
2022/03/15 11:56:48;;;;;;;3.33;1.17;;;;;;;;;;5090206;28;20524;-60
2022/03/15 11:59:14;;;;;;;4.63;1.55;;;;;;;;;;5073695;28;20825;-60
2022/03/15 12:01:47;;;;;;;3.78;1.02;;;;;;;;;;5075214;28;20396;-59
2022/03/15 12:04:15;;;;;;;2.20;1.40;;;;;;;;;;5094629;28;20423;-59
2022/03/15 12:06:59;;;;;;;2.75;1.17;;;;;;;;;;5095048;28;20016;-59
2022/03/15 12:09:27;;;;;;;1.80;0.88;;;;;;;;;;5087550;28;20020;-59
2022/03/15 12:12:19;;;;;;;1.33;0.70;;;;;;;;;;5082783;28;20050;-59
2022/03/15 12:14:50;;;;;;;3.67;1.25;;;;;;;;;;5090561;28;20051;-60
2022/03/15 12:17:17;;;;;;;2.40;1.08;;;;;;;;;;5094439;28;20152;-62
2022/03/15 12:19:47;;;;;;;2.60;1.02;;;;;;;;;;5094273;28;20081;-60
2022/03/15 12:22:26;;;;;;;1.17;0.80;;;;;;;;;;5094085;28;20028;-59
2022/03/15 12:25:04;;;;;;;1.25;1.00;;;;;;;;;;5094664;28;20034;-59
2022/03/15 12:27:30;;;;;;;3.72;0.88;;;;;;;;;;5093128;28;20031;-59
2022/03/15 12:29:57;;;;;;;3.00;1.38;;;;;;;;;;5083443;28;20029;-58
2022/03/15 12:32:24;;;;;;;3.00;1.25;;;;;;;;;;5073740;28;20470;-59
2022/03/15 12:34:53;;;;;;;7.95;1.40;;;;;;;;;;5075753;28;20473;-59
2022/03/15 12:37:31;;;;;;;2.92;1.20;;;;;;;;;;5073540;28;20047;-58
2022/03/15 12:39:58;;;;;;;1.52;0.88;;;;;;;;;;5074186;28;20029;-58
2022/03/15 12:42:25;;;;;;;2.03;0.98;;;;;;;;;;5073381;28;20032;-58
2022/03/15 12:45:00;;;;;;;3.13;1.27;;;;;;;;;;5085581;28;20028;-58
2022/03/15 12:47:27;;;;;;;2.83;1.45;;;;;;;;;;5093324;28;20077;-59
2022/03/15 12:50:12;;;;;;;2.85;1.00;;;;;;;;;;5089904;28;20044;-58
2022/03/15 12:52:39;;;;;;;1.90;1.00;;;;;;;;;;5073108;28;20596;-58
2022/03/15 12:55:05;;;;;;;2.67;1.05;;;;;;;;;;5085994;28;20031;-49
2022/03/15 12:57:32;;;;;;;1.95;0.90;;;;;;;;;;5093265;28;20024;-58
2022/03/15 12:59:58;;;;;;;4.05;1.50;;;;;;;;;;5065907;28;20021;-58
2022/03/15 13:02:24;;;;;;;1.85;1.27;;;;;;;;;;5072834;28;20043;-58
2022/03/15 13:04:50;;;;;;;1.33;1.00;;;;;;;;;;5083929;28;20465;-59
2022/03/15 13:07:28;;;;;;;2.65;1.23;;;;;;;;;;5093489;28;20039;-60
2022/03/15 13:09:57;;;;;;;2.42;1.02;;;;;;;;;;5093801;28;20027;-58
2022/03/15 13:12:23;;;;;;;1.30;0.80;;;;;;;;;;5079030;28;20090;-59
2022/03/15 13:14:55;;;;;;;1.45;1.10;;;;;;;;;;5083177;28;20061;-59
2022/03/15 13:17:22;;;;;;;1.38;0.90;;;;;;;;;;5073725;28;20512;-61
2022/03/15 13:19:48;;;;;;;1.80;1.33;;;;;;;;;;5082639;28;20047;-58
2022/03/15 13:22:14;;;;;;;1.42;0.82;;;;;;;;;;5081682;28;20105;-58
2022/03/15 13:24:40;;;;;;;1.48;1.20;;;;;;;;;;5080800;28;20035;-58
2022/03/15 13:27:08;;;;;;;1.83;1.00;;;;;;;;;;5093065;28;20499;-58
2022/03/15 13:29:39;;;;;;;1.40;0.80;;;;;;;;;;5066713;28;20101;-58
2022/03/15 13:32:05;;;;;;;3.15;1.63;;;;;;;;;;5074077;28;20032;-58
2022/03/15 13:34:32;;;;;;;2.40;1.30;;;;;;;;;;5074735;28;20032;-58
2022/03/15 13:37:07;;;;;;;2.80;1.27;;;;;;;;;;5072924;28;20487;-58
2022/03/15 13:39:34;;;;;;;1.38;0.98;;;;;;;;;;5079125;28;20377;-58
2022/03/15 13:42:01;;;;;;;1.75;0.85;;;;;;;;;;5093223;28;20020;-59
2022/03/15 13:44:29;;;;;;;2.28;1.08;;;;;;;;;;5091435;28;20020;-59
2022/03/15 13:47:08;;;;;;;1.55;1.08;;;;;;;;;;5092838;28;20032;-59
2022/03/15 13:49:37;;;;;;;2.13;1.20;;;;;;;;;;5091607;28;20118;-58
2022/03/15 13:52:05;;;;;;;1.23;0.90;;;;;;;;;;5093032;28;20024;-58
2022/03/15 13:54:31;;;;;;;1.20;0.93;;;;;;;;;;5082521;28;20040;-59
2022/03/15 13:56:58;;;;;;;1.73;1.23;;;;;;;;;;5072626;28;20070;-58
2022/03/15 13:59:28;;;;;;;2.30;0.80;;;;;;;;;;5082173;28;20119;-59
2022/03/15 14:01:58;;;;;;;2.20;0.98;;;;;;;;;;5092175;28;20020;-58
2022/03/15 14:04:29;;;;;;;1.77;1.02;;;;;;;;;;5082454;28;20093;-59
2022/03/15 14:06:59;;;;;;;1.05;0.80;;;;;;;;;;5072468;28;20098;-58
2022/03/15 14:09:26;;;;;;;1.40;0.80;;;;;;;;;;5071729;28;20029;-59
2022/03/15 14:12:08;;;;;;;4.07;1.30;;;;;;;;;;5073071;28;20017;-58
2022/03/15 14:14:48;;;;;;;2.78;1.00;;;;;;;;;;5071601;28;20059;-58
2022/03/15 14:17:15;;;;;;;2.58;1.30;;;;;;;;;;5071775;28;20092;-58
2022/03/15 14:19:51;;;;;;;1.42;1.13;;;;;;;;;;5080129;28;20025;-59
2022/03/15 14:22:23;;;;;;;3.05;1.17;;;;;;;;;;5083270;28;20067;-59
2022/03/15 14:24:49;;;;;;;2.17;1.20;;;;;;;;;;5072216;28;20028;-59
2022/03/15 14:27:16;;;;;;;1.55;1.13;;;;;;;;;;5072086;28;20047;-58
2022/03/15 14:29:52;;;;;;;2.17;1.20;;;;;;;;;;5071301;28;20085;-59
2022/03/15 14:32:18;;;;;;;1.90;1.10;;;;;;;;;;5080453;28;20024;-59
2022/03/15 14:34:53;;;;;;;2.97;1.38;;;;;;;;;;5082298;28;20098;-59
2022/03/15 14:37:19;;;;;;;3.08;1.20;;;;;;;;;;5087833;28;20101;-58
2022/03/15 14:39:46;;;;;;;3.03;1.50;;;;;;;;;;5091732;28;20058;-59
2022/03/15 14:42:13;;;;;;;2.92;1.67;;;;;;;;;;5077366;28;20017;-58
2022/03/15 14:44:40;;;;;;;1.83;1.25;;;;;;;;;;5082067;28;20032;-58
2022/03/15 14:47:07;;;;;;;4.35;1.50;;;;;;;;;;5091317;28;20493;-58